메인 페이지
METAR-TAF:

METAR-TAF

공항 :

그린우드, 미시시피, 미국

위도: 33-29-33N, 경도: 090-05-01W, 고도: 47m

현재 날씨관측

예보는 50분 전, 14:53시(UTC)에 발표되었습니다.
여러 방향의 바람 6kt
온도 28°C
습도 70%
기압 1019 hPa
시정: 16.1km
맑음

METAR: KGWO 201453Z AUTO VRB06KT 10SM CLR 28/22 A3008 RMK AO2 SLP185 T02830217 53009

시각: 10:43 (15:43 UTC)

예보

예보는 4 시간 23분 전, 11:20시(UTC)에 발표되었습니다.
예보 대상 시간: 20일 12시부터 21일 12시까지 (UTC)
남남동3kt
시정: 10km
고도 5000ft 상공 구름 조금
20일 1800시부터 (UTC)
4kt
시정: 10km
고도 5000ft 상공 구름 많음, 적란운.
고도 25000ft 상공 구름 많음
시계 내 뇌우
21일 0200시부터 (UTC)
동남동4kt
시정: 10km
고도 9000ft 상공 구름 많음
고도 13000ft 상공 구름 많음
시계 내 소나기
21일 0400시부터 (UTC)
동남동4kt
시정: 10km
고도 9000ft 상공 구름 보통
고도 13000ft 상공 구름 많음
21일 1000시부터 (UTC)
남동3kt
시정: 4.8km
고도 13000ft 상공 구름 많음
박무

TAF: KGWO 201120Z 2012/2112 16003KT P6SM FEW050 FM201800 19004KT P6SM VCTS BKN050CB BKN250 FM210200 11004KT P6SM VCSH BKN090 BKN130 FM210400 11004KT P6SM SCT090 BKN130 FM211000 13003KT 3SM BR BKN130

4,000개 이상의 공항 관측 자료 및 예보 (METAR 및 TAF 보고).

지도상에서 검색 가능한 기상관측소가 노란 점과 빨간 점으로 표시되어 있습니다.

기상관측소 명을 보려면 표시 위로 마우스를 이동하세요.

날씨 관측과 예보를 보려면 클릭하세요.

지도 변경 : 확대하려면 엑스 표시가 있는 녹색 버튼, 축소하려면 빼기 표시가 있는 녹색 버튼, 다음 페이지의 지도를 보려면 녹색 화살표를 클릭하세요.


METAR-TAF: